Ana Sayfa
METAR-TAF:

METAR-TAF

Havaalanları :

Gaines County Airport

Seminole, Teksas, Amerika Birleşik Devletleri

Enlem: 32-40-31N, Boylam: 102-39-09W, yükseklik: 1010 m

Güncel hava durumu gözlemi

Rapor saat 11:35 UTC de 20 dakika önce yapıldı.
Rüzgar güneydoğudan 14 kt ve 20 kt'a kadar ani rüzgarlar
Sıcaklık 25°C
Nem 57%
Basınç 1013 hPa
Görüş mesafesi: 16.1 km
Açık gökyüzü

METAR: KGNC 161135Z AUTO 14014G20KT 10SM CLR 25/16 A2991 RMK AO2 T02460157

Saat: 06:55 (11:55 UTC)


TAF: eksik

4.000'den fazla havaalanı için hava durumu gözlemleri ve tahminleri (METAR ve TAF raporları).

Kullanılabilir istasyonlar harita üzerinde sarı ve kırmızı noktalarla gösterilir.

İstasyonun adını görmek için fareyi noktanın üzerinde gezdirin.

Sonrasında hava gözlem ve tahminlerini görmek için tıklayın.

Haritayı değiştirmek için: yaklaştırmak için siyah artı işaretli yeşil düğmeye ve uzaklaştırmak için de eksi işaretli düğmeye hızla tıklayın; bitişik haritalar için yeşil okları kullanın.


METAR-TAF: